Time;durP1;ratioP1;P1;durP2;ratioP2;P2;SDS_P1;SDS_P2;PMS_P1;PMS_P2;Temp;Humidity;BMP_temperature;BMP_pressure;BME280_temperature;BME280_humidity;BME280_pressure;Samples;Min_cycle;Max_cycle;Signal;HPM_P1;HPM_P2
2022/09/20 00:01:09;;;;;;;2.67;2.05;;;;;;;;;;4938786;29;20058;-76
2022/09/20 00:03:39;;;;;;;2.05;1.95;;;;;;;;;;4962632;28;20087;-77
2022/09/20 00:06:06;;;;;;;4.68;2.20;;;;;;;;;;4963195;28;20027;-76
2022/09/20 00:08:33;;;;;;;2.00;1.85;;;;;;;;;;4959264;28;20050;-77
2022/09/20 00:11:10;;;;;;;3.42;2.05;;;;;;;;;;4960707;28;20054;-77
2022/09/20 00:13:37;;;;;;;3.92;2.17;;;;;;;;;;4943846;28;20046;-77
2022/09/20 00:16:11;;;;;;;2.75;2.10;;;;;;;;;;4941270;29;20020;-75
2022/09/20 00:18:37;;;;;;;2.53;2.30;;;;;;;;;;4960679;28;20116;-77
2022/09/20 00:21:03;;;;;;;2.63;2.10;;;;;;;;;;4962325;28;20028;-75
2022/09/20 00:23:29;;;;;;;4.30;2.28;;;;;;;;;;4956226;28;20078;-75
2022/09/20 00:25:57;;;;;;;3.40;1.83;;;;;;;;;;4943712;29;20130;-78
2022/09/20 00:28:23;;;;;;;2.80;2.00;;;;;;;;;;4938879;28;20043;-76
2022/09/20 00:30:49;;;;;;;2.10;1.90;;;;;;;;;;4959448;28;20119;-76
2022/09/20 00:33:15;;;;;;;2.78;2.30;;;;;;;;;;4959020;28;20035;-77
2022/09/20 00:35:45;;;;;;;2.78;2.15;;;;;;;;;;4941632;29;20070;-77
2022/09/20 00:38:12;;;;;;;3.15;2.08;;;;;;;;;;4957172;28;20106;-77
2022/09/20 00:40:39;;;;;;;2.85;2.17;;;;;;;;;;4960218;28;20098;-77
2022/09/20 00:43:05;;;;;;;2.60;2.17;;;;;;;;;;4941055;28;20043;-77
2022/09/20 00:45:31;;;;;;;2.47;1.90;;;;;;;;;;4958437;28;20035;-77
2022/09/20 00:48:00;;;;;;;1.98;1.83;;;;;;;;;;4945972;29;20030;-77
2022/09/20 00:50:33;;;;;;;2.10;1.92;;;;;;;;;;4947737;29;20051;-76
2022/09/20 00:53:03;;;;;;;2.13;1.92;;;;;;;;;;4948165;29;20039;-78
2022/09/20 00:55:30;;;;;;;5.68;1.90;;;;;;;;;;4964414;28;20055;-77
2022/09/20 00:57:57;;;;;;;2.25;2.00;;;;;;;;;;4950974;29;20552;-77
2022/09/20 01:00:23;;;;;;;2.20;2.00;;;;;;;;;;4974955;28;20023;-77
2022/09/20 01:02:52;;;;;;;1.75;1.60;;;;;;;;;;4955675;29;20038;-77
2022/09/20 01:05:19;;;;;;;3.28;2.03;;;;;;;;;;4981184;28;20028;-78
2022/09/20 01:07:46;;;;;;;1.73;1.63;;;;;;;;;;4951206;29;20098;-77
2022/09/20 01:10:12;;;;;;;2.30;2.10;;;;;;;;;;4966740;28;20043;-77
2022/09/20 01:12:39;;;;;;;2.90;1.60;;;;;;;;;;4966877;29;20543;-78
2022/09/20 01:15:07;;;;;;;3.75;1.77;;;;;;;;;;4963354;28;20023;-77
2022/09/20 01:17:35;;;;;;;2.00;1.80;;;;;;;;;;4960895;28;20023;-78
2022/09/20 01:20:05;;;;;;;7.45;2.70;;;;;;;;;;4970909;29;20047;-76
2022/09/20 01:22:49;;;;;;;1.73;1.63;;;;;;;;;;4951372;29;20038;-77
2022/09/20 01:25:34;;;;;;;1.80;1.70;;;;;;;;;;4968029;29;20094;-77
2022/09/20 01:28:00;;;;;;;2.45;1.73;;;;;;;;;;4966085;28;20386;-77
2022/09/20 01:30:43;;;;;;;1.70;1.60;;;;;;;;;;4964464;28;20085;-78
2022/09/20 01:33:15;;;;;;;1.70;1.60;;;;;;;;;;4967288;29;20031;-77
2022/09/20 01:35:44;;;;;;;1.35;1.25;;;;;;;;;;4967751;28;20034;-78
2022/09/20 01:38:28;;;;;;;2.22;1.70;;;;;;;;;;4967092;28;20038;-76
2022/09/20 01:40:54;;;;;;;1.58;1.52;;;;;;;;;;4956089;28;20032;-77
2022/09/20 01:43:45;;;;;;;2.35;1.73;;;;;;;;;;4947413;29;20031;-76
2022/09/20 01:46:18;;;;;;;3.50;2.40;;;;;;;;;;4965512;29;20035;-74
2022/09/20 01:48:44;;;;;;;6.53;2.50;;;;;;;;;;4948596;29;20061;-76
2022/09/20 01:51:29;;;;;;;3.42;2.40;;;;;;;;;;4966653;28;20027;-77
2022/09/20 01:54:13;;;;;;;3.55;2.03;;;;;;;;;;4962415;28;20062;-75
2022/09/20 01:56:46;;;;;;;2.75;2.20;;;;;;;;;;4967174;29;20059;-75
2022/09/20 01:59:24;;;;;;;2.55;1.92;;;;;;;;;;4954107;28;20036;-77
2022/09/20 02:01:50;;;;;;;1.75;1.65;;;;;;;;;;4965960;28;20051;-77
2022/09/20 02:04:16;;;;;;;2.10;1.90;;;;;;;;;;4966198;28;20036;-77
2022/09/20 02:06:52;;;;;;;3.55;1.63;;;;;;;;;;4949793;29;20038;-77
2022/09/20 02:09:34;;;;;;;1.73;1.63;;;;;;;;;;4949732;29;20058;-77
2022/09/20 02:12:03;;;;;;;1.75;1.58;;;;;;;;;;4963559;28;20063;-77
2022/09/20 02:14:31;;;;;;;2.88;1.85;;;;;;;;;;4970338;28;20027;-76
2022/09/20 02:17:06;;;;;;;4.25;2.00;;;;;;;;;;4969323;28;20035;-76
2022/09/20 02:19:38;;;;;;;3.65;1.80;;;;;;;;;;4967503;28;20027;-78
2022/09/20 02:22:10;;;;;;;4.10;1.90;;;;;;;;;;4966657;28;20031;-77
2022/09/20 02:24:39;;;;;;;1.77;1.67;;;;;;;;;;4967599;29;20043;-77
2022/09/20 02:27:21;;;;;;;2.13;1.67;;;;;;;;;;4972424;29;20105;-78
2022/09/20 02:29:47;;;;;;;2.00;1.80;;;;;;;;;;4951447;29;20049;-77
2022/09/20 02:32:20;;;;;;;2.10;1.83;;;;;;;;;;4970409;29;20031;-77
2022/09/20 02:35:06;;;;;;;2.80;1.98;;;;;;;;;;4973356;29;20024;-75
2022/09/20 02:37:32;;;;;;;3.50;1.80;;;;;;;;;;4907870;29;20029;-78
2022/09/20 02:39:58;;;;;;;1.80;1.70;;;;;;;;;;4885714;29;20827;-77
2022/09/20 02:42:33;;;;;;;2.58;1.73;;;;;;;;;;4905840;29;20037;-77
2022/09/20 02:45:02;;;;;;;2.25;1.65;;;;;;;;;;4904896;29;20127;-77
2022/09/20 02:47:32;;;;;;;3.45;1.70;;;;;;;;;;4904645;29;20033;-77
2022/09/20 02:50:11;;;;;;;3.47;1.70;;;;;;;;;;4905251;29;20071;-78
2022/09/20 02:52:40;;;;;;;4.28;1.88;;;;;;;;;;4897759;29;20033;-78
2022/09/20 02:55:31;;;;;;;3.25;1.73;;;;;;;;;;4909515;29;20053;-78
2022/09/20 02:58:06;;;;;;;1.85;1.75;;;;;;;;;;4907656;29;20595;-77
2022/09/20 03:00:45;;;;;;;4.15;1.52;;;;;;;;;;4904744;29;20682;-78
2022/09/20 03:03:20;;;;;;;1.75;1.65;;;;;;;;;;4894255;29;20036;-77
2022/09/20 03:06:09;;;;;;;1.90;1.70;;;;;;;;;;4908908;29;20503;-78
2022/09/20 03:08:51;;;;;;;1.90;1.80;;;;;;;;;;4904570;29;20112;-77
2022/09/20 03:11:25;;;;;;;5.65;1.80;;;;;;;;;;4900531;29;20100;-78
2022/09/20 03:14:06;;;;;;;3.65;1.75;;;;;;;;;;4928682;29;20035;-78
2022/09/20 03:16:51;;;;;;;1.65;1.55;;;;;;;;;;4968817;28;20043;-78
2022/09/20 03:19:36;;;;;;;2.65;1.90;;;;;;;;;;4942214;28;20032;-77
2022/09/20 03:22:21;;;;;;;3.25;1.92;;;;;;;;;;4972272;29;20020;-77
2022/09/20 03:25:15;;;;;;;3.08;2.10;;;;;;;;;;4956612;29;20077;-75
2022/09/20 03:27:41;;;;;;;6.15;2.30;;;;;;;;;;4964941;29;20535;-78
2022/09/20 03:30:19;;;;;;;5.50;2.53;;;;;;;;;;4970832;29;20026;-75
2022/09/20 03:32:55;;;;;;;2.63;2.17;;;;;;;;;;4975470;28;20031;-75
2022/09/20 03:35:24;;;;;;;3.17;2.28;;;;;;;;;;4962136;28;20046;-78
2022/09/20 03:38:09;;;;;;;3.25;2.33;;;;;;;;;;4953609;28;20051;-77
2022/09/20 03:40:57;;;;;;;2.47;2.25;;;;;;;;;;4954181;29;20036;-76
2022/09/20 03:43:29;;;;;;;4.30;2.40;;;;;;;;;;4951362;29;20035;-77
2022/09/20 03:46:03;;;;;;;3.13;2.28;;;;;;;;;;4967854;29;20028;-77
2022/09/20 03:48:47;;;;;;;3.92;2.50;;;;;;;;;;4959506;28;20087;-75
2022/09/20 03:51:22;;;;;;;4.45;2.65;;;;;;;;;;4953363;28;20042;-78
2022/09/20 03:53:57;;;;;;;3.35;2.45;;;;;;;;;;4951520;29;20035;-76
2022/09/20 03:56:26;;;;;;;4.75;2.42;;;;;;;;;;4952059;29;20473;-77
2022/09/20 03:59:16;;;;;;;3.50;2.58;;;;;;;;;;4949385;29;20037;-77
2022/09/20 04:01:49;;;;;;;4.70;2.28;;;;;;;;;;4950670;28;20114;-75
2022/09/20 04:04:30;;;;;;;3.35;2.42;;;;;;;;;;4967266;28;20043;-75
2022/09/20 04:06:58;;;;;;;5.30;3.15;;;;;;;;;;4963534;28;20023;-75
2022/09/20 04:09:42;;;;;;;3.95;2.42;;;;;;;;;;4948976;29;20063;-78
2022/09/20 04:12:11;;;;;;;4.68;2.50;;;;;;;;;;4961962;29;20030;-78
2022/09/20 04:14:43;;;;;;;2.83;2.40;;;;;;;;;;4951313;29;20031;-77
2022/09/20 04:17:35;;;;;;;3.65;2.72;;;;;;;;;;4975083;28;20023;-77
2022/09/20 04:20:05;;;;;;;4.25;2.40;;;;;;;;;;4969640;28;20031;-78
2022/09/20 04:22:31;;;;;;;5.30;2.60;;;;;;;;;;4969892;29;20071;-77
2022/09/20 04:25:27;;;;;;;4.68;2.45;;;;;;;;;;4973186;28;20114;-78
2022/09/20 04:28:09;;;;;;;4.15;2.60;;;;;;;;;;4880743;29;20041;-77
2022/09/20 04:30:42;;;;;;;4.55;2.95;;;;;;;;;;4869059;29;20033;-77
2022/09/20 04:33:08;;;;;;;4.47;2.70;;;;;;;;;;4886990;29;20041;-75
2022/09/20 04:38:20;;;;;;;6.57;3.10;;;;;;;;;;4888577;29;20081;-77
2022/09/20 04:40:59;;;;;;;4.93;3.00;;;;;;;;;;4887757;29;20459;-76
2022/09/20 04:43:51;;;;;;;3.78;3.00;;;;;;;;;;4891173;29;20124;-77
2022/09/20 04:46:29;;;;;;;6.45;3.50;;;;;;;;;;4899294;29;20009;-77
2022/09/20 04:49:04;;;;;;;7.32;3.30;;;;;;;;;;4879080;29;20017;-76
2022/09/20 04:51:49;;;;;;;5.32;3.30;;;;;;;;;;4896780;29;20049;-78
2022/09/20 04:54:34;;;;;;;6.35;3.50;;;;;;;;;;4881766;29;20029;-76
2022/09/20 04:57:19;;;;;;;5.07;4.22;;;;;;;;;;4895895;29;20053;-76
2022/09/20 04:59:54;;;;;;;12.80;5.35;;;;;;;;;;4888839;29;20041;-76
2022/09/20 05:02:41;;;;;;;8.25;3.78;;;;;;;;;;4873477;29;20061;-75
2022/09/20 05:05:26;;;;;;;7.05;3.55;;;;;;;;;;4946006;29;20043;-75
2022/09/20 05:08:13;;;;;;;8.05;4.03;;;;;;;;;;4964958;28;20062;-77
2022/09/20 05:10:51;;;;;;;3.97;3.30;;;;;;;;;;4963245;29;20101;-75
2022/09/20 05:13:28;;;;;;;9.40;3.55;;;;;;;;;;4952356;29;20512;-76
2022/09/20 05:16:03;;;;;;;5.68;3.67;;;;;;;;;;4955312;28;20049;-77
2022/09/20 05:18:33;;;;;;;8.63;3.67;;;;;;;;;;4957265;28;20027;-78
2022/09/20 05:21:14;;;;;;;7.65;3.55;;;;;;;;;;4931609;29;20053;-75
2022/09/20 05:23:59;;;;;;;4.68;3.53;;;;;;;;;;4957789;28;20015;-74
2022/09/20 05:26:51;;;;;;;7.20;3.97;;;;;;;;;;4950827;29;20429;-76
2022/09/20 05:29:22;;;;;;;7.32;4.03;;;;;;;;;;4948986;29;20087;-76
2022/09/20 05:32:12;;;;;;;5.57;3.70;;;;;;;;;;4965558;28;20028;-77
2022/09/20 05:35:14;;;;;;;7.25;3.45;;;;;;;;;;4881433;29;20045;-75
2022/09/20 05:37:42;;;;;;;6.38;4.60;;;;;;;;;;4793262;29;20039;-76
2022/09/20 05:40:32;;;;;;;7.93;4.30;;;;;;;;;;4791678;29;20043;-78
2022/09/20 05:43:02;;;;;;;7.03;5.20;;;;;;;;;;4777233;30;20057;-75
2022/09/20 05:45:28;;;;;;;6.30;4.60;;;;;;;;;;4790611;29;20051;-77
2022/09/20 05:48:17;;;;;;;7.07;4.45;;;;;;;;;;4804820;29;20095;-74
2022/09/20 05:51:01;;;;;;;15.30;6.50;;;;;;;;;;4804291;29;20103;-75
2022/09/20 05:53:47;;;;;;;10.10;5.00;;;;;;;;;;4796493;29;20083;-77
2022/09/20 05:56:32;;;;;;;14.55;6.97;;;;;;;;;;4809251;29;20035;-77
2022/09/20 05:59:12;;;;;;;17.00;5.68;;;;;;;;;;4797498;29;20043;-79
2022/09/20 06:01:51;;;;;;;7.90;4.47;;;;;;;;;;4787433;29;20039;-78
2022/09/20 06:04:21;;;;;;;5.68;4.13;;;;;;;;;;4783582;29;20078;-76
2022/09/20 06:07:12;;;;;;;7.13;4.10;;;;;;;;;;4780227;29;20027;-83
2022/09/20 06:10:08;;;;;;;24.98;5.60;;;;;;;;;;4785002;29;20115;-77
2022/09/20 06:12:53;;;;;;;10.75;4.97;;;;;;;;;;4915570;29;20122;-77
2022/09/20 06:15:23;;;;;;;12.55;4.72;;;;;;;;;;4933746;29;20032;-83
2022/09/20 06:18:07;;;;;;;13.48;4.70;;;;;;;;;;4936995;29;20512;-81
2022/09/20 06:20:38;;;;;;;10.10;5.05;;;;;;;;;;4937431;29;20066;-87
2022/09/20 06:23:05;;;;;;;8.25;4.60;;;;;;;;;;4911269;29;20075;-90
2022/09/20 06:25:34;;;;;;;5.75;4.25;;;;;;;;;;4918323;29;20051;-89
2022/09/20 06:28:11;;;;;;;6.40;4.18;;;;;;;;;;4920275;29;20032;-87
2022/09/20 06:30:56;;;;;;;6.95;3.90;;;;;;;;;;4919400;29;20111;-90
2022/09/20 06:33:27;;;;;;;7.40;4.43;;;;;;;;;;4937216;29;20031;-94
2022/09/20 06:35:56;;;;;;;6.97;4.20;;;;;;;;;;4917209;29;20036;-80
2022/09/20 06:41:27;;;;;;;9.68;5.05;;;;;;;;;;4932980;29;20039;-82
2022/09/20 06:43:59;;;;;;;6.70;4.30;;;;;;;;;;4937952;29;20114;-80
2022/09/20 06:46:33;;;;;;;6.63;4.60;;;;;;;;;;4935699;29;20039;-80
2022/09/20 06:48:59;;;;;;;;;;;;;;;;;;4931937;29;20114;-83
2022/09/20 06:51:26;;;;;;;7.80;4.75;;;;;;;;;;4917372;29;20452;-79
2022/09/20 06:53:54;;;;;;;11.20;5.68;;;;;;;;;;4934794;29;20027;-92
2022/09/20 06:56:24;;;;;;;8.55;5.05;;;;;;;;;;4938534;29;20059;-84
2022/09/20 06:58:51;;;;;;;9.98;6.22;;;;;;;;;;4935566;29;20032;-83
2022/09/20 07:01:18;;;;;;;5.93;4.40;;;;;;;;;;4919661;29;20032;-86
2022/09/20 07:03:44;;;;;;;6.97;5.07;;;;;;;;;;4929610;29;20071;-79
2022/09/20 07:06:10;;;;;;;7.53;5.35;;;;;;;;;;4932715;29;20076;-74
2022/09/20 07:08:36;;;;;;;7.65;5.22;;;;;;;;;;4936103;28;20036;-78
2022/09/20 07:11:07;;;;;;;6.95;4.75;;;;;;;;;;4946923;29;20034;-86
2022/09/20 07:13:33;;;;;;;9.93;5.13;;;;;;;;;;4951044;29;20584;-85
2022/09/20 07:16:01;;;;;;;6.65;4.65;;;;;;;;;;4931256;29;20099;-84
2022/09/20 07:18:27;;;;;;;6.57;4.60;;;;;;;;;;4932103;29;20485;-86
2022/09/20 07:20:57;;;;;;;5.45;4.85;;;;;;;;;;4934512;29;20032;-83
2022/09/20 07:23:24;;;;;;;9.38;7.22;;;;;;;;;;4937767;29;20031;-84
2022/09/20 07:25:50;;;;;;;11.02;6.55;;;;;;;;;;4933574;29;20036;-83
2022/09/20 07:28:19;;;;;;;8.52;7.25;;;;;;;;;;4932696;29;20060;-82
2022/09/20 07:30:46;;;;;;;7.13;4.53;;;;;;;;;;4947747;28;20035;-86
2022/09/20 07:33:18;;;;;;;5.03;4.40;;;;;;;;;;4936687;29;20115;-83
2022/09/20 07:35:45;;;;;;;7.20;4.72;;;;;;;;;;4952435;28;20030;-74
2022/09/20 07:38:11;;;;;;;6.88;4.07;;;;;;;;;;4954562;29;20058;-82
2022/09/20 07:40:37;;;;;;;5.22;4.18;;;;;;;;;;4954915;28;20082;-81
2022/09/20 07:43:03;;;;;;;7.15;4.25;;;;;;;;;;4956236;28;20027;-79
2022/09/20 07:45:30;;;;;;;7.15;4.18;;;;;;;;;;4950557;28;20035;-84
2022/09/20 07:48:04;;;;;;;4.85;3.97;;;;;;;;;;4952450;28;20146;-72
2022/09/20 07:50:30;;;;;;;6.50;4.57;;;;;;;;;;4952013;28;20077;-78
2022/09/20 07:52:56;;;;;;;5.35;3.67;;;;;;;;;;4948841;28;20027;-81
2022/09/20 07:55:22;;;;;;;4.30;3.35;;;;;;;;;;4953149;28;20042;-78
2022/09/20 07:57:50;;;;;;;8.00;3.40;;;;;;;;;;4951729;28;20054;-77
2022/09/20 08:00:16;;;;;;;7.65;4.15;;;;;;;;;;4954806;29;20035;-75
2022/09/20 08:02:44;;;;;;;4.10;3.30;;;;;;;;;;4952652;28;20385;-81
2022/09/20 08:05:10;;;;;;;3.83;3.05;;;;;;;;;;4951721;28;20038;-72
2022/09/20 08:07:38;;;;;;;6.57;3.17;;;;;;;;;;4949760;28;20027;-86
2022/09/20 08:10:04;;;;;;;5.13;3.60;;;;;;;;;;4941182;28;20518;-82
2022/09/20 08:12:31;;;;;;;3.78;3.05;;;;;;;;;;4948248;28;20489;-77
2022/09/20 08:14:57;;;;;;;4.05;3.20;;;;;;;;;;4954025;28;20058;-76
2022/09/20 08:17:24;;;;;;;7.15;3.90;;;;;;;;;;4950505;28;20023;-74
2022/09/20 08:19:51;;;;;;;4.38;3.05;;;;;;;;;;4950228;28;20041;-71
2022/09/20 08:22:18;;;;;;;4.82;3.45;;;;;;;;;;4953756;28;20031;-70
2022/09/20 08:24:45;;;;;;;4.93;3.17;;;;;;;;;;4945315;28;20031;-73
2022/09/20 08:27:12;;;;;;;6.03;3.75;;;;;;;;;;4947849;28;20015;-72
2022/09/20 08:29:39;;;;;;;5.75;3.10;;;;;;;;;;4950931;28;20041;-72
2022/09/20 08:32:05;;;;;;;3.25;2.60;;;;;;;;;;4952344;29;20027;-79
2022/09/20 08:34:31;;;;;;;6.45;3.10;;;;;;;;;;4951851;29;20047;-72
2022/09/20 08:36:58;;;;;;;4.78;3.30;;;;;;;;;;4952905;29;20047;-75
2022/09/20 08:39:24;;;;;;;5.30;3.10;;;;;;;;;;4953168;28;20019;-75
2022/09/20 08:41:50;;;;;;;5.97;3.70;;;;;;;;;;4950994;29;20540;-75
2022/09/20 08:44:24;;;;;;;8.15;4.72;;;;;;;;;;4950941;29;20078;-76
2022/09/20 08:46:54;;;;;;;20.05;11.02;;;;;;;;;;4955994;29;20027;-74
2022/09/20 08:49:27;;;;;;;6.30;3.70;;;;;;;;;;4955558;29;20035;-75
2022/09/20 08:51:56;;;;;;;8.25;4.07;;;;;;;;;;4956098;29;20110;-75
2022/09/20 08:54:23;;;;;;;9.05;4.72;;;;;;;;;;4954399;29;20038;-76
2022/09/20 08:56:49;;;;;;;6.82;4.00;;;;;;;;;;4951089;29;20227;-76
2022/09/20 08:59:18;;;;;;;5.63;3.00;;;;;;;;;;4955945;29;20023;-75
2022/09/20 09:01:44;;;;;;;6.32;3.58;;;;;;;;;;4958907;28;20028;-74
2022/09/20 09:04:13;;;;;;;5.43;2.83;;;;;;;;;;4956025;29;20417;-75
2022/09/20 09:06:39;;;;;;;4.80;2.50;;;;;;;;;;4955786;29;20027;-76
2022/09/20 09:09:06;;;;;;;7.93;2.70;;;;;;;;;;4954900;28;20040;-76
2022/09/20 09:11:33;;;;;;;5.90;2.53;;;;;;;;;;4950923;29;20027;-76
2022/09/20 09:14:03;;;;;;;4.60;2.30;;;;;;;;;;4957240;28;20019;-75
2022/09/20 09:16:30;;;;;;;5.00;2.50;;;;;;;;;;4957005;29;20031;-76
2022/09/20 09:18:57;;;;;;;4.15;2.60;;;;;;;;;;4957934;29;20418;-76
2022/09/20 09:21:23;;;;;;;4.32;2.60;;;;;;;;;;4954309;28;20035;-75
2022/09/20 09:23:52;;;;;;;5.65;2.67;;;;;;;;;;4954053;29;20041;-74
2022/09/20 09:26:22;;;;;;;4.50;2.30;;;;;;;;;;4948480;29;20038;-75
2022/09/20 09:29:07;;;;;;;4.97;2.17;;;;;;;;;;4934236;29;20039;-76
2022/09/20 09:31:33;;;;;;;7.80;2.50;;;;;;;;;;4955408;29;20035;-75
2022/09/20 09:33:59;;;;;;;3.58;2.22;;;;;;;;;;4954929;29;20059;-74
2022/09/20 09:36:26;;;;;;;4.53;1.90;;;;;;;;;;4955616;29;20027;-75
2022/09/20 09:39:11;;;;;;;3.78;1.90;;;;;;;;;;4955215;29;20504;-74
2022/09/20 09:41:37;;;;;;;9.80;2.40;;;;;;;;;;4953325;29;20043;-73
2022/09/20 09:44:19;;;;;;;3.22;1.90;;;;;;;;;;4950618;29;20031;-73
2022/09/20 09:46:48;;;;;;;5.90;2.25;;;;;;;;;;4951548;29;20023;-75
2022/09/20 09:49:22;;;;;;;8.02;2.80;;;;;;;;;;4952065;29;20023;-74
2022/09/20 09:51:48;;;;;;;;;;;;;;;;;;4954293;29;20067;-74
2022/09/20 09:54:17;;;;;;;6.72;3.45;;;;;;;;;;4952027;29;20062;-75
2022/09/20 09:57:01;;;;;;;7.63;3.55;;;;;;;;;;4955070;29;20466;-74
2022/09/20 09:59:30;;;;;;;10.63;3.03;;;;;;;;;;4950947;29;20031;-74
2022/09/20 10:02:06;;;;;;;3.22;2.08;;;;;;;;;;4947935;29;20023;-76
2022/09/20 10:04:41;;;;;;;5.72;2.30;;;;;;;;;;4953750;29;20124;-75
2022/09/20 10:07:16;;;;;;;5.63;2.60;;;;;;;;;;4944142;29;20138;-74
2022/09/20 10:09:45;;;;;;;9.23;3.13;;;;;;;;;;4949428;29;20111;-76
2022/09/20 10:12:11;;;;;;;3.83;2.00;;;;;;;;;;4954204;29;20032;-76
2022/09/20 10:14:53;;;;;;;4.95;2.17;;;;;;;;;;4954224;28;20032;-74
2022/09/20 10:17:26;;;;;;;2.10;1.80;;;;;;;;;;4953328;28;20038;-78
2022/09/20 10:19:52;;;;;;;3.33;2.40;;;;;;;;;;4969693;29;20066;-78
2022/09/20 10:22:37;;;;;;;2.08;1.75;;;;;;;;;;4969851;28;20028;-79
2022/09/20 10:25:23;;;;;;;9.35;2.38;;;;;;;;;;4940978;28;20042;-78
2022/09/20 10:27:50;;;;;;;7.25;2.80;;;;;;;;;;4952390;28;20075;-77
2022/09/20 10:30:18;;;;;;;3.70;2.40;;;;;;;;;;4936755;29;20031;-78
2022/09/20 10:33:07;;;;;;;5.72;2.60;;;;;;;;;;4937984;29;20035;-75
2022/09/20 10:35:52;;;;;;;5.13;2.10;;;;;;;;;;4866499;29;20043;-80
2022/09/20 10:38:38;;;;;;;5.07;2.22;;;;;;;;;;4907327;29;20096;-78
2022/09/20 10:44:01;;;;;;;2.20;1.90;;;;;;;;;;4910766;29;20358;-79
2022/09/20 10:46:42;;;;;;;6.28;2.00;;;;;;;;;;4917010;29;20131;-79
2022/09/20 10:49:32;;;;;;;3.55;2.08;;;;;;;;;;4910761;29;20032;-78
2022/09/20 10:52:10;;;;;;;5.57;2.22;;;;;;;;;;4857750;29;20046;-78
2022/09/20 10:54:57;;;;;;;4.70;2.30;;;;;;;;;;4852450;29;20038;-77
2022/09/20 10:57:47;;;;;;;2.47;1.80;;;;;;;;;;4852831;29;20018;-78
2022/09/20 11:00:36;;;;;;;2.60;1.80;;;;;;;;;;4857311;29;20036;-79
2022/09/20 11:03:07;;;;;;;;;;;;;;;;;;4850556;29;20041;-76
2022/09/20 11:09:04;;;;;;;4.35;2.00;;;;;;;;;;4483190;26;20067;-80
2022/09/20 11:11:42;;;;;;;9.98;7.18;;;;;;;;;;4917502;29;20040;-80
2022/09/20 11:14:27;;;;;;;4.63;2.60;;;;;;;;;;4938193;29;20048;-80
2022/09/20 11:17:08;;;;;;;5.38;2.78;;;;;;;;;;4927913;29;20079;-80
2022/09/20 11:19:43;;;;;;;4.43;2.15;;;;;;;;;;4947152;29;20048;-78
2022/09/20 11:22:47;;;;;;;4.97;2.20;;;;;;;;;;4939068;29;20032;-78
2022/09/20 11:25:37;;;;;;;2.55;1.70;;;;;;;;;;4937419;29;20044;-78
2022/09/20 11:28:05;;;;;;;;;;;;;;;;;;4938274;29;20206;-76
2022/09/20 11:30:33;;;;;;;2.95;2.05;;;;;;;;;;4929861;29;19983;-77
2022/09/20 11:33:05;;;;;;;7.22;2.67;;;;;;;;;;4930047;29;20035;-76
2022/09/20 11:35:37;;;;;;;3.50;1.95;;;;;;;;;;4935384;29;20039;-77
2022/09/20 11:38:10;;;;;;;3.40;2.28;;;;;;;;;;4934345;29;20040;-77
2022/09/20 11:40:40;;;;;;;3.50;2.17;;;;;;;;;;4935940;29;20103;-77
2022/09/20 11:43:07;;;;;;;2.47;1.67;;;;;;;;;;4951019;28;20094;-78
2022/09/20 11:45:41;;;;;;;6.32;1.95;;;;;;;;;;4968458;28;20030;-79
2022/09/20 11:48:28;;;;;;;5.35;2.08;;;;;;;;;;4963578;29;20032;-76
2022/09/20 11:51:32;;;;;;;3.22;1.70;;;;;;;;;;4968894;29;20018;-78
2022/09/20 11:54:01;;;;;;;7.40;2.33;;;;;;;;;;4960686;28;20042;-78
2022/09/20 11:56:37;;;;;;;3.50;1.80;;;;;;;;;;4967742;29;20038;-78
2022/09/20 11:59:06;;;;;;;4.82;1.80;;;;;;;;;;4942594;29;20036;-78
2022/09/20 12:02:05;;;;;;;1.58;1.45;;;;;;;;;;4957114;29;20034;-80
2022/09/20 12:04:48;;;;;;;4.20;2.13;;;;;;;;;;4969184;28;20063;-79
2022/09/20 12:07:55;;;;;;;5.15;1.90;;;;;;;;;;4968446;29;20051;-78
2022/09/20 12:10:26;;;;;;;5.90;1.80;;;;;;;;;;4893998;29;20521;-79
2022/09/20 12:13:05;;;;;;;1.90;1.70;;;;;;;;;;4877990;29;20044;-78
2022/09/20 12:15:40;;;;;;;2.80;2.08;;;;;;;;;;4896040;29;20056;-78
2022/09/20 12:18:11;;;;;;;6.38;2.53;;;;;;;;;;4873228;29;20074;-77
2022/09/20 12:20:57;;;;;;;2.22;1.92;;;;;;;;;;4882081;29;20475;-77
2022/09/20 12:23:39;;;;;;;5.72;2.10;;;;;;;;;;4817532;29;20042;-78
2022/09/20 12:26:12;;;;;;;2.88;1.70;;;;;;;;;;4815671;29;20553;-78
2022/09/20 12:29:26;;;;;;;3.15;1.80;;;;;;;;;;4808972;30;20032;-77
2022/09/20 12:32:33;;;;;;;2.92;1.80;;;;;;;;;;4796160;30;20016;-78
2022/09/20 12:35:22;;;;;;;3.47;2.00;;;;;;;;;;4793314;29;20063;-78
2022/09/20 12:37:48;;;;;;;3.70;2.00;;;;;;;;;;4793249;30;20062;-78
2022/09/20 12:40:15;;;;;;;2.47;1.80;;;;;;;;;;4803298;29;20054;-78
2022/09/20 12:42:41;;;;;;;3.15;1.90;;;;;;;;;;4847757;29;20034;-80
2022/09/20 12:48:19;;;;;;;5.07;2.15;;;;;;;;;;4857648;29;20081;-78
2022/09/20 12:53:58;;;;;;;3.38;2.00;;;;;;;;;;4855067;29;20048;-77
2022/09/20 12:56:26;;;;;;;;;;;;;;;;;;4856306;29;20053;-77
2022/09/20 12:58:56;;;;;;;4.88;2.05;;;;;;;;;;4855886;29;19918;-77
2022/09/20 13:01:49;;;;;;;2.35;1.90;;;;;;;;;;4902538;29;20071;-79
2022/09/20 13:04:34;;;;;;;4.13;2.10;;;;;;;;;;4897256;29;20081;-78
2022/09/20 13:07:23;;;;;;;2.47;1.80;;;;;;;;;;4917347;29;20101;-79
2022/09/20 13:09:49;;;;;;;5.88;2.15;;;;;;;;;;4899147;29;20044;-78
2022/09/20 13:12:18;;;;;;;3.80;2.50;;;;;;;;;;4903776;29;20028;-77
2022/09/20 13:14:46;;;;;;;5.90;2.08;;;;;;;;;;4899113;29;20064;-77
2022/09/20 13:17:19;;;;;;;11.88;5.85;;;;;;;;;;4904675;29;20036;-79
2022/09/20 13:20:19;;;;;;;17.15;9.57;;;;;;;;;;4926724;29;20478;-77
2022/09/20 13:22:55;;;;;;;3.50;2.40;;;;;;;;;;4927956;29;20016;-83
2022/09/20 13:30:43;;;;;;;7.93;2.50;;;;;;;;;;3233496;26;20521;-77
2022/09/20 13:33:23;;;;;;;4.30;2.20;;;;;;;;;;5262307;23;20059;-79
2022/09/20 13:35:55;;;;;;;4.82;2.00;;;;;;;;;;4969295;28;20023;-78
2022/09/20 13:38:23;;;;;;;3.80;2.22;;;;;;;;;;4952024;28;20117;-75
2022/09/20 13:40:53;;;;;;;8.10;3.03;;;;;;;;;;4975903;28;20484;-78
2022/09/20 13:46:31;;;;;;;3.95;2.70;;;;;;;;;;5003499;28;20034;-80
2022/09/20 13:49:26;;;;;;;4.95;2.80;;;;;;;;;;4994079;28;20055;-81
2022/09/20 13:51:58;;;;;;;4.30;2.28;;;;;;;;;;4934899;29;20099;-77
2022/09/20 13:54:32;;;;;;;7.30;2.70;;;;;;;;;;4989446;28;20060;-76
2022/09/20 13:57:04;;;;;;;5.10;2.13;;;;;;;;;;4973580;28;20035;-80
2022/09/20 13:59:40;;;;;;;3.92;1.83;;;;;;;;;;4967884;28;20488;-76
2022/09/20 14:02:39;;;;;;;3.17;2.17;;;;;;;;;;4988170;28;20057;-82
2022/09/20 14:05:24;;;;;;;4.57;2.60;;;;;;;;;;4882109;29;20041;-77
2022/09/20 14:07:53;;;;;;;3.17;2.10;;;;;;;;;;4860723;29;20046;-78
2022/09/20 14:10:35;;;;;;;3.13;2.10;;;;;;;;;;4856285;29;20041;-77
2022/09/20 14:13:23;;;;;;;2.40;1.92;;;;;;;;;;4878455;29;20134;-77
2022/09/20 14:15:50;;;;;;;2.17;1.83;;;;;;;;;;4863288;29;20042;-76
2022/09/20 14:18:22;;;;;;;2.47;1.80;;;;;;;;;;4879694;29;20030;-77
2022/09/20 14:20:49;;;;;;;4.28;2.13;;;;;;;;;;4877807;29;20066;-78
2022/09/20 14:23:28;;;;;;;4.70;1.90;;;;;;;;;;4881935;29;20061;-80
2022/09/20 14:26:13;;;;;;;2.80;1.55;;;;;;;;;;4847987;29;20049;-78
2022/09/20 14:28:45;;;;;;;3.13;1.80;;;;;;;;;;4880494;29;20065;-81
2022/09/20 14:31:17;;;;;;;4.03;2.50;;;;;;;;;;4885739;29;20033;-82
2022/09/20 14:33:59;;;;;;;3.90;1.98;;;;;;;;;;4885053;29;20052;-81
2022/09/20 14:37:07;;;;;;;3.47;2.13;;;;;;;;;;4885845;29;20052;-82
2022/09/20 14:39:59;;;;;;;4.03;2.10;;;;;;;;;;4855052;29;20049;-83
2022/09/20 14:42:45;;;;;;;3.08;2.20;;;;;;;;;;4913082;29;20090;-80
2022/09/20 14:45:35;;;;;;;2.72;2.10;;;;;;;;;;4941713;29;20036;-81
2022/09/20 14:48:29;;;;;;;14.20;2.95;;;;;;;;;;4908097;29;20039;-81
2022/09/20 14:51:20;;;;;;;5.65;2.08;;;;;;;;;;4923375;29;20112;-81
2022/09/20 14:54:06;;;;;;;4.38;2.15;;;;;;;;;;4928217;29;20045;-80
2022/09/20 14:56:35;;;;;;;5.25;2.30;;;;;;;;;;4946195;29;20036;-81
2022/09/20 15:05:29;;;;;;;17.77;10.00;;;;;;;;;;5002469;28;20045;-82
2022/09/20 15:11:05;;;;;;;7.85;2.50;;;;;;;;;;6039671;23;20013;-81
2022/09/20 15:13:34;;;;;;;8.88;2.80;;;;;;;;;;4938264;28;20055;-80
2022/09/20 15:16:03;;;;;;;8.18;2.47;;;;;;;;;;4979562;28;20038;-82
2022/09/20 15:18:38;;;;;;;10.05;2.78;;;;;;;;;;4978477;28;20039;-81
2022/09/20 15:21:20;;;;;;;5.07;2.30;;;;;;;;;;4975744;28;20015;-80
2022/09/20 15:23:53;;;;;;;6.95;2.58;;;;;;;;;;4959527;29;20027;-80
2022/09/20 15:26:24;;;;;;;5.97;2.80;;;;;;;;;;4958997;29;20023;-80
2022/09/20 15:29:00;;;;;;;5.03;2.75;;;;;;;;;;4958224;29;20058;-81
2022/09/20 15:31:30;;;;;;;8.70;3.22;;;;;;;;;;4959847;29;20004;-79
2022/09/20 15:33:58;;;;;;;10.77;2.60;;;;;;;;;;4967536;28;20012;-79
2022/09/20 15:36:30;;;;;;;5.43;2.65;;;;;;;;;;4972107;28;20070;-76
2022/09/20 15:39:04;;;;;;;7.63;2.88;;;;;;;;;;4973047;28;20035;-80
2022/09/20 15:41:31;;;;;;;5.15;2.40;;;;;;;;;;4961548;29;20039;-75
2022/09/20 15:44:08;;;;;;;4.20;2.20;;;;;;;;;;4957988;29;20050;-78
2022/09/20 15:46:54;;;;;;;5.75;2.25;;;;;;;;;;4961939;29;20043;-75
2022/09/20 15:49:45;;;;;;;6.65;2.20;;;;;;;;;;4966515;29;20035;-78
2022/09/20 15:52:12;;;;;;;6.25;2.55;;;;;;;;;;4933830;29;20043;-77
2022/09/20 15:54:42;;;;;;;4.63;2.70;;;;;;;;;;4952519;28;20044;-78
2022/09/20 15:57:10;;;;;;;4.93;2.40;;;;;;;;;;4965331;29;20063;-79
2022/09/20 15:59:57;;;;;;;5.43;2.60;;;;;;;;;;4969060;29;20031;-78
2022/09/20 16:02:24;;;;;;;5.10;2.60;;;;;;;;;;4961158;29;20039;-78
2022/09/20 16:04:53;;;;;;;4.47;2.70;;;;;;;;;;4939193;29;20051;-77